首页
METAR-TAF:

METAR-TAF

机场 :

北京首都国际机场

北京, 中华人民共和国

纬度: 39-56N, 经度: 116-17E, 海拔: 55米

当前天气观测

该预报发布于32分钟前的07:30 UTC
风速29节,风向西,有时为45节阵风
温度 27°C
湿度 6%
气压 1009 hPa
能见度10公里或以上
1500米以下无云,无积雨云

METAR: ZBAA 220730Z 28015G23MPS CAVOK 27/M13 Q1009 WS ALL RWY NOSIG

时间: 16:02 (08:02 UTC)

预报

该预报发布于3小时和17分钟前的04:45 UTC
预报有效从22日的 06点(UTC)到 23日的 06点(UTC)
风速29节,风向西,有时为41节阵风
能见度10公里或以上
1500米以下无云,无积雨云
成为
从 22日的 09点(UTC)到 22日的 10点(UTC)
风速17节,风向西转西北
成为
从 22日的 12点(UTC)到 22日的 13点(UTC)
风速8节,风向西北

TAF: ZBAA 220445Z 2206/2306 28015G21MPS CAVOK TX27/2207Z TN10/2221Z BECMG 2209/2210 30009MPS BECMG 2212/2213 31004MPS

超过4000个机场的气象观测和天气预报(METAR&TAF报告)。

可查询的气象台以黄色和红色小点在地图上表示。

将鼠标移到小点上方,可查看气象台名称。

然后点击查看天气观测和预报。

如需切换地图:点击带黑十字的绿色按钮放大地图;点击带横线的绿色按钮缩小地图;或者点击绿色箭头查看邻近地区的地图。


METAR-TAF: